createdAt,value
2017-10-22T00:00:24.459Z,41.30
2017-10-22T00:02:50.725Z,52.73
2017-10-22T00:05:16.998Z,42.50
2017-10-22T00:07:43.282Z,48.50
2017-10-22T00:10:09.580Z,76.40
2017-10-22T00:12:35.876Z,57.80
2017-10-22T00:15:02.159Z,60.90
2017-10-22T00:17:28.457Z,58.63
2017-10-22T00:19:54.715Z,41.60
2017-10-22T00:22:20.977Z,40.67
2017-10-22T00:24:47.245Z,52.80
2017-10-22T00:27:13.528Z,56.97
2017-10-22T00:29:39.822Z,37.57
2017-10-22T00:32:06.119Z,49.30
2017-10-22T00:34:32.418Z,38.43
2017-10-22T00:36:58.705Z,31.73
2017-10-22T00:39:24.972Z,35.90
2017-10-22T00:41:51.281Z,37.93
2017-10-22T00:44:17.551Z,39.27
2017-10-22T00:46:43.829Z,36.60
2017-10-22T00:49:10.102Z,43.00
2017-10-22T00:51:36.374Z,40.30
2017-10-22T00:54:02.679Z,45.90
2017-10-22T00:56:28.965Z,45.57
2017-10-22T00:58:55.231Z,46.63
2017-10-22T01:01:21.518Z,47.43
2017-10-22T01:03:47.811Z,54.23
2017-10-22T01:06:14.094Z,46.40
2017-10-22T01:08:40.364Z,42.53
2017-10-22T01:11:06.641Z,44.40
2017-10-22T01:13:32.926Z,41.83
2017-10-22T01:15:59.206Z,44.20
2017-10-22T01:18:25.486Z,42.60
2017-10-22T01:20:51.758Z,46.50
2017-10-22T01:23:18.043Z,44.60
2017-10-22T01:25:44.318Z,41.47
2017-10-22T01:28:10.601Z,44.50
2017-10-22T01:30:36.895Z,35.13
2017-10-22T01:33:03.187Z,48.83
2017-10-22T01:35:29.475Z,46.10
2017-10-22T01:37:55.745Z,53.53
2017-10-22T01:40:22.023Z,41.00
2017-10-22T01:42:48.337Z,48.90
2017-10-22T01:45:14.603Z,47.93
2017-10-22T01:47:40.915Z,47.70
2017-10-22T01:50:07.187Z,47.87
2017-10-22T01:52:33.465Z,53.03
2017-10-22T01:54:59.765Z,49.47
2017-10-22T01:57:26.053Z,55.40
2017-10-22T01:59:52.320Z,45.90
2017-10-22T02:02:18.614Z,53.20
2017-10-22T02:04:44.879Z,45.83
2017-10-22T02:07:11.167Z,44.70
2017-10-22T02:09:37.446Z,46.97
2017-10-22T02:12:03.719Z,38.20
2017-10-22T02:14:29.991Z,46.93
2017-10-22T02:16:56.276Z,47.73
2017-10-22T02:19:22.621Z,39.13
2017-10-22T02:21:48.886Z,48.63
2017-10-22T02:24:15.153Z,43.97
2017-10-22T02:26:41.429Z,43.03
2017-10-22T02:29:07.738Z,50.13
2017-10-22T02:31:34.023Z,39.33
2017-10-22T02:34:00.306Z,48.30
2017-10-22T02:36:26.571Z,61.37
2017-10-22T02:38:52.853Z,43.63
2017-10-22T02:41:19.111Z,46.20
2017-10-22T02:43:45.425Z,49.60
2017-10-22T02:46:11.715Z,47.77
2017-10-22T02:48:37.986Z,46.73
2017-10-22T02:51:04.397Z,47.53
2017-10-22T02:53:30.689Z,46.17
2017-10-22T02:55:56.957Z,52.70
2017-10-22T02:58:23.247Z,57.40
2017-10-22T03:00:49.514Z,44.13
2017-10-22T03:03:15.817Z,49.13
2017-10-22T03:05:42.089Z,61.83
2017-10-22T03:08:08.399Z,44.57
2017-10-22T03:10:34.684Z,45.50
2017-10-22T03:13:00.966Z,40.67
2017-10-22T03:15:27.249Z,72.80
2017-10-22T03:17:53.536Z,74.73
2017-10-22T03:20:19.871Z,64.53
2017-10-22T03:22:46.145Z,55.17
2017-10-22T03:25:12.420Z,49.53
2017-10-22T03:27:38.689Z,50.83
2017-10-22T03:30:04.967Z,45.67
2017-10-22T03:32:31.297Z,42.67
2017-10-22T03:34:57.575Z,41.80
2017-10-22T03:37:23.863Z,40.87
2017-10-22T03:39:50.294Z,38.03
2017-10-22T03:42:16.578Z,48.10
2017-10-22T03:44:42.849Z,46.90
2017-10-22T03:47:09.149Z,54.70
2017-10-22T03:49:35.446Z,55.03
2017-10-22T03:52:01.723Z,57.53
2017-10-22T03:54:27.989Z,57.57
2017-10-22T03:56:54.276Z,44.47
2017-10-22T03:59:20.563Z,50.60
2017-10-22T04:01:46.840Z,48.27
2017-10-22T04:04:13.132Z,56.00
2017-10-22T04:06:39.420Z,49.13
2017-10-22T04:09:05.755Z,53.20
2017-10-22T04:11:32.035Z,46.53
2017-10-22T04:13:58.322Z,65.23
2017-10-22T04:16:24.617Z,57.37
2017-10-22T04:18:50.897Z,71.03
2017-10-22T04:21:17.212Z,59.60
2017-10-22T04:23:43.536Z,66.50
2017-10-22T04:26:09.834Z,61.17
2017-10-22T04:28:36.124Z,61.33
2017-10-22T04:31:02.387Z,68.03
2017-10-22T04:33:28.694Z,60.10
2017-10-22T04:35:54.982Z,65.30
2017-10-22T04:38:21.261Z,51.97
2017-10-22T04:40:47.556Z,58.73
2017-10-22T04:43:13.814Z,55.80
2017-10-22T04:45:40.098Z,45.40
2017-10-22T04:48:06.405Z,42.67
2017-10-22T04:50:32.721Z,52.37
2017-10-22T04:52:58.990Z,50.50
2017-10-22T04:55:25.249Z,60.30
2017-10-22T04:57:51.580Z,53.93
2017-10-22T05:00:17.857Z,45.40
2017-10-22T05:02:44.132Z,73.00
2017-10-22T05:05:10.409Z,55.90
2017-10-22T05:07:36.672Z,52.23
2017-10-22T05:10:02.986Z,45.97
2017-10-22T05:12:29.267Z,45.20
2017-10-22T05:14:55.522Z,58.40
2017-10-22T05:17:21.808Z,51.70
2017-10-22T05:19:48.219Z,44.50
2017-10-22T05:22:14.501Z,52.43
2017-10-22T05:24:40.786Z,34.23
2017-10-22T05:27:07.068Z,38.57
2017-10-22T05:29:33.343Z,68.43
2017-10-22T05:31:59.621Z,36.03
2017-10-22T05:34:25.932Z,35.37
2017-10-22T05:36:52.212Z,46.03
2017-10-22T05:39:18.485Z,39.93
2017-10-22T05:41:44.743Z,38.00
2017-10-22T05:44:10.994Z,31.53
2017-10-22T05:46:37.271Z,45.37
2017-10-22T05:49:03.526Z,34.27
2017-10-22T05:51:29.776Z,37.33
2017-10-22T05:53:56.031Z,29.47
2017-10-22T05:56:22.463Z,30.33
2017-10-22T05:58:48.755Z,25.93
2017-10-22T06:01:15.014Z,27.57
2017-10-22T06:03:41.275Z,34.57
2017-10-22T06:06:07.537Z,36.60
2017-10-22T06:08:33.796Z,29.20
2017-10-22T06:11:00.125Z,45.13
2017-10-22T06:13:26.424Z,23.27
2017-10-22T06:15:52.690Z,29.77
2017-10-22T06:18:18.943Z,20.87
2017-10-22T06:20:45.205Z,18.83
2017-10-22T06:23:11.464Z,18.60
2017-10-22T06:25:37.745Z,44.07
2017-10-22T06:28:04.003Z,30.83
2017-10-22T06:30:30.298Z,27.70
2017-10-22T06:32:56.585Z,42.80
2017-10-22T06:35:22.905Z,34.90
2017-10-22T06:37:49.180Z,29.47
2017-10-22T06:40:15.450Z,50.77
2017-10-22T06:42:41.735Z,40.47
2017-10-22T06:45:08.005Z,55.30
2017-10-22T06:47:34.337Z,62.93
2017-10-22T06:50:00.610Z,38.77
2017-10-22T06:52:26.887Z,62.53
2017-10-22T06:54:53.209Z,46.73
2017-10-22T06:57:19.475Z,43.40
2017-10-22T06:59:45.742Z,36.97
2017-10-22T07:02:12.005Z,34.73
2017-10-22T07:04:38.279Z,48.53
2017-10-22T07:07:04.559Z,46.93
2017-10-22T07:09:30.847Z,43.47
2017-10-22T07:11:57.152Z,54.63
2017-10-22T07:14:23.412Z,54.27
2017-10-22T07:16:49.682Z,40.10
2017-10-22T07:19:15.966Z,47.23
2017-10-22T07:21:42.239Z,59.37
2017-10-22T07:24:08.516Z,40.10
2017-10-22T07:26:34.786Z,56.50
2017-10-22T07:29:01.180Z,48.33
2017-10-22T07:31:27.457Z,47.47
2017-10-22T07:33:53.765Z,40.23
2017-10-22T07:36:20.041Z,38.13
2017-10-22T07:38:46.310Z,58.97
2017-10-22T07:41:12.585Z,58.40
2017-10-22T07:43:38.888Z,63.53
2017-10-22T07:46:05.149Z,71.30
2017-10-22T07:48:31.402Z,86.50
2017-10-22T07:50:57.691Z,76.53
2017-10-22T07:53:23.953Z,68.70
2017-10-22T07:55:50.253Z,75.63
2017-10-22T07:58:16.660Z,59.77
2017-10-22T08:00:42.918Z,38.03
2017-10-22T08:03:09.202Z,29.20
2017-10-22T08:05:35.442Z,31.60
2017-10-22T08:08:01.760Z,27.03
2017-10-22T08:10:28.024Z,29.40
2017-10-22T08:12:54.276Z,24.30
2017-10-22T08:15:20.521Z,27.83
2017-10-22T08:17:46.797Z,26.87
2017-10-22T08:20:13.080Z,24.07
2017-10-22T08:22:39.741Z,22.00
2017-10-22T08:25:05.997Z,20.97
2017-10-22T08:27:32.605Z,17.73
2017-10-22T08:29:58.873Z,20.87
2017-10-22T08:32:25.462Z,19.53
2017-10-22T08:34:51.734Z,24.13
2017-10-22T08:37:18.004Z,21.23
2017-10-22T08:39:44.269Z,21.45
2017-10-22T08:42:10.572Z,23.33
2017-10-22T08:44:36.871Z,17.43
2017-10-22T08:47:03.167Z,22.30
2017-10-22T08:49:29.480Z,18.43
2017-10-22T08:51:55.739Z,23.70
2017-10-22T08:54:22.009Z,23.63
2017-10-22T08:56:48.276Z,19.17
2017-10-22T08:59:14.554Z,17.03
2017-10-22T09:01:40.821Z,19.07
2017-10-22T09:04:07.128Z,28.67
2017-10-22T09:06:33.393Z,19.80
2017-10-22T09:08:59.726Z,17.03
2017-10-22T09:11:26.003Z,19.00
2017-10-22T09:13:52.258Z,24.70
2017-10-22T09:16:18.575Z,17.40
2017-10-22T09:18:44.843Z,18.47
2017-10-22T09:21:11.130Z,19.57
2017-10-22T09:23:37.459Z,17.57
2017-10-22T09:26:03.718Z,20.33
2017-10-22T09:28:30.033Z,15.97
2017-10-22T09:30:56.451Z,18.50
2017-10-22T09:33:22.760Z,19.40
2017-10-22T09:35:49.115Z,22.23
2017-10-22T09:38:15.382Z,23.97
2017-10-22T09:40:41.839Z,21.17
2017-10-22T09:43:08.165Z,37.77
2017-10-22T09:45:34.473Z,20.20
2017-10-22T09:48:00.745Z,15.60
2017-10-22T09:50:27.050Z,22.30
2017-10-22T09:52:53.295Z,17.80
2017-10-22T09:55:19.598Z,14.63
2017-10-22T09:57:45.965Z,16.87
2017-10-22T10:00:12.222Z,17.20
2017-10-22T10:02:38.485Z,16.53
2017-10-22T10:05:04.997Z,20.53
2017-10-22T10:07:31.357Z,15.03
2017-10-22T10:09:57.625Z,16.40
2017-10-22T10:12:23.884Z,20.03
2017-10-22T10:14:50.341Z,15.67
2017-10-22T10:17:16.618Z,17.23
2017-10-22T10:19:43.600Z,13.80
2017-10-22T10:22:09.967Z,15.80
2017-10-22T10:24:36.258Z,14.90
2017-10-22T10:27:02.549Z,17.77
2017-10-22T10:29:28.869Z,16.50
2017-10-22T10:31:55.170Z,21.80
2017-10-22T10:34:21.428Z,16.60
2017-10-22T10:36:47.708Z,21.70
2017-10-22T10:39:13.979Z,17.47
2017-10-22T10:41:40.264Z,17.17
2017-10-22T10:44:06.576Z,17.40
2017-10-22T10:46:32.828Z,14.30
2017-10-22T10:48:59.112Z,17.27
2017-10-22T10:51:25.435Z,15.07
2017-10-22T10:53:51.706Z,17.70
2017-10-22T10:56:18.090Z,14.43
2017-10-22T10:58:44.385Z,16.27
2017-10-22T11:01:10.700Z,21.63
2017-10-22T11:03:37.019Z,25.87
2017-10-22T11:06:03.291Z,20.00
2017-10-22T11:08:29.557Z,14.27
2017-10-22T11:10:55.822Z,15.60
2017-10-22T11:13:22.096Z,16.13
2017-10-22T11:15:48.438Z,15.97
2017-10-22T11:18:14.711Z,23.70
2017-10-22T11:20:40.992Z,14.30
2017-10-22T11:23:07.281Z,16.00
2017-10-22T11:25:33.538Z,16.33
2017-10-22T11:27:59.853Z,17.97
2017-10-22T11:30:26.136Z,17.77
2017-10-22T11:32:52.403Z,20.17
2017-10-22T11:35:18.673Z,20.03
2017-10-22T11:37:44.978Z,18.53
2017-10-22T11:40:11.456Z,16.40
2017-10-22T11:42:37.714Z,15.33
2017-10-22T11:45:03.965Z,15.27
2017-10-22T11:47:30.256Z,16.00
2017-10-22T11:49:56.515Z,19.93
2017-10-22T11:52:22.807Z,16.70
2017-10-22T11:54:49.081Z,14.93
2017-10-22T11:57:15.341Z,24.43
2017-10-22T11:59:41.595Z,21.50
2017-10-22T12:02:07.860Z,16.87
2017-10-22T12:04:34.120Z,37.67
2017-10-22T12:07:00.398Z,17.23
2017-10-22T12:09:26.664Z,14.03
2017-10-22T12:11:52.964Z,17.03
2017-10-22T12:14:19.208Z,15.60
2017-10-22T12:16:45.470Z,15.80
2017-10-22T12:19:11.744Z,21.43
2017-10-22T12:21:38.039Z,15.30
2017-10-22T12:24:04.323Z,16.63
2017-10-22T12:26:30.594Z,16.93
2017-10-22T12:28:56.833Z,12.87
2017-10-22T12:31:23.087Z,13.30
2017-10-22T12:33:49.358Z,16.93
2017-10-22T12:36:15.620Z,17.10
2017-10-22T12:38:42.139Z,16.90
2017-10-22T12:41:08.758Z,22.80
2017-10-22T12:43:35.415Z,18.17
2017-10-22T12:46:02.037Z,13.23
2017-10-22T12:48:28.692Z,15.07
2017-10-22T12:50:55.354Z,18.60
2017-10-22T12:53:21.782Z,19.80
2017-10-22T12:55:48.082Z,13.10
2017-10-22T13:00:45.980Z,20.80
2017-10-22T13:03:12.261Z,15.97
2017-10-22T13:05:38.537Z,20.83
2017-10-22T13:08:04.821Z,19.47
2017-10-22T13:10:31.092Z,15.47
2017-10-22T13:12:57.550Z,16.30
2017-10-22T13:15:23.972Z,33.73
2017-10-22T13:17:50.254Z,16.53
2017-10-22T13:20:16.519Z,15.60
2017-10-22T13:22:42.762Z,16.40
2017-10-22T13:25:09.054Z,24.37
2017-10-22T13:27:35.328Z,18.10
2017-10-22T13:30:01.760Z,16.70
2017-10-22T13:32:28.009Z,19.03
2017-10-22T13:34:54.263Z,24.17
2017-10-22T13:37:20.601Z,18.53
2017-10-22T13:39:46.878Z,22.47
2017-10-22T13:42:13.141Z,21.67
2017-10-22T13:44:39.399Z,23.03
2017-10-22T13:47:05.702Z,22.70
2017-10-22T13:49:32.002Z,19.83
2017-10-22T13:51:58.307Z,18.13
2017-10-22T13:54:24.597Z,24.33
2017-10-22T13:56:50.874Z,28.03
2017-10-22T13:59:17.190Z,22.90
2017-10-22T14:01:43.507Z,19.70
2017-10-22T14:04:09.770Z,25.43
2017-10-22T14:06:36.047Z,21.47
2017-10-22T14:09:02.352Z,35.07
2017-10-22T14:11:28.660Z,22.83
2017-10-22T14:13:54.971Z,32.23
2017-10-22T14:16:21.318Z,50.30
2017-10-22T14:18:47.597Z,52.97
2017-10-22T14:21:13.885Z,40.83
2017-10-22T14:23:40.158Z,32.60
2017-10-22T14:26:06.436Z,41.43
2017-10-22T14:28:32.718Z,38.03
2017-10-22T14:30:58.983Z,26.43
2017-10-22T14:33:25.248Z,42.93
2017-10-22T14:35:51.518Z,34.93
2017-10-22T14:38:17.802Z,28.93
2017-10-22T14:40:44.163Z,30.57
2017-10-22T14:43:10.660Z,43.00
2017-10-22T14:45:36.945Z,44.73
2017-10-22T14:48:03.211Z,49.17
2017-10-22T14:50:29.476Z,83.77
2017-10-22T14:52:55.753Z,48.80
2017-10-22T14:55:22.227Z,55.47
2017-10-22T14:57:48.536Z,36.63
2017-10-22T15:00:14.833Z,41.93
2017-10-22T15:02:41.107Z,61.87
2017-10-22T15:05:07.378Z,36.60
2017-10-22T15:07:33.654Z,47.63
2017-10-22T15:09:59.921Z,32.23
2017-10-22T15:12:26.176Z,47.33
2017-10-22T15:14:52.427Z,62.53
2017-10-22T15:17:18.698Z,48.60
2017-10-22T15:19:44.983Z,63.57
2017-10-22T15:22:11.259Z,52.23
2017-10-22T15:24:37.511Z,83.60
2017-10-22T15:27:03.821Z,64.77
2017-10-22T15:29:30.063Z,48.43
2017-10-22T15:31:56.332Z,60.90
2017-10-22T15:34:22.706Z,48.33
2017-10-22T15:36:48.967Z,53.37
2017-10-22T15:39:15.268Z,50.93
2017-10-22T15:41:41.543Z,46.40
2017-10-22T15:44:07.858Z,64.27
2017-10-22T15:46:34.115Z,54.27
2017-10-22T15:49:00.360Z,43.30
2017-10-22T15:51:26.893Z,53.83
2017-10-22T15:53:53.161Z,50.03
2017-10-22T15:56:19.431Z,39.87
2017-10-22T15:58:45.689Z,46.87
2017-10-22T16:01:11.957Z,39.70
2017-10-22T16:03:38.371Z,37.10
2017-10-22T16:06:04.623Z,43.70
2017-10-22T16:08:30.881Z,65.57
2017-10-22T16:10:57.156Z,56.63
2017-10-22T16:13:23.430Z,67.87
2017-10-22T16:15:49.743Z,46.40
2017-10-22T16:18:16.013Z,53.63
2017-10-22T16:20:42.260Z,44.07
2017-10-22T16:23:08.555Z,50.70
2017-10-22T16:25:34.796Z,61.90
2017-10-22T16:28:01.062Z,56.97
2017-10-22T16:30:27.345Z,54.33
2017-10-22T16:32:53.627Z,55.20
2017-10-22T16:35:19.895Z,52.67
2017-10-22T16:37:46.164Z,62.27
2017-10-22T16:40:12.431Z,48.43
2017-10-22T16:42:38.716Z,54.43
2017-10-22T16:45:04.976Z,56.43
2017-10-22T16:47:31.268Z,49.47
2017-10-22T16:49:57.639Z,50.23
2017-10-22T16:52:23.925Z,49.77
2017-10-22T16:54:50.210Z,53.43
2017-10-22T16:57:16.500Z,55.43
2017-10-22T16:59:42.844Z,55.47
2017-10-22T17:02:09.100Z,90.07
2017-10-22T17:04:35.358Z,59.00
2017-10-22T17:07:01.617Z,57.47
2017-10-22T17:09:27.884Z,89.37
2017-10-22T17:11:54.149Z,70.03
2017-10-22T17:14:20.400Z,64.40
2017-10-22T17:16:46.648Z,60.47
2017-10-22T17:19:12.940Z,67.80
2017-10-22T17:21:39.204Z,56.80
2017-10-22T17:24:05.592Z,66.53
2017-10-22T17:26:31.869Z,64.47
2017-10-22T17:28:58.137Z,65.47
2017-10-22T17:31:24.411Z,69.27
2017-10-22T17:33:50.667Z,64.77
2017-10-22T17:36:16.924Z,75.83
2017-10-22T17:38:43.202Z,53.77
2017-10-22T17:41:09.462Z,73.43
2017-10-22T17:43:35.727Z,58.20
2017-10-22T17:46:02.013Z,60.30
2017-10-22T17:48:28.279Z,68.53
2017-10-22T17:50:54.599Z,62.73
2017-10-22T17:53:20.871Z,59.10
2017-10-22T17:55:47.124Z,55.03
2017-10-22T17:58:13.380Z,78.60
2017-10-22T18:00:39.639Z,61.03
2017-10-22T18:03:05.939Z,59.57
2017-10-22T18:05:32.194Z,69.00
2017-10-22T18:07:58.614Z,76.73
2017-10-22T18:10:24.906Z,85.50
2017-10-22T18:12:51.168Z,98.90
2017-10-22T18:15:17.434Z,66.03
2017-10-22T18:17:43.699Z,64.43
2017-10-22T18:20:09.959Z,84.50
2017-10-22T18:22:36.229Z,65.93
2017-10-22T18:25:02.511Z,67.70
2017-10-22T18:27:28.853Z,68.73
2017-10-22T18:29:55.131Z,66.63
2017-10-22T18:32:21.415Z,70.63
2017-10-22T18:34:47.710Z,65.93
2017-10-22T18:37:13.990Z,82.30
2017-10-22T18:39:40.282Z,60.37
2017-10-22T18:42:06.553Z,61.30
2017-10-22T18:44:32.830Z,66.30
2017-10-22T18:46:59.103Z,69.30
2017-10-22T18:49:25.420Z,113.43
2017-10-22T18:51:51.687Z,122.40
2017-10-22T18:54:17.956Z,118.03
2017-10-22T18:56:44.227Z,83.70
2017-10-22T18:59:10.547Z,85.30
2017-10-22T19:01:36.846Z,87.43
2017-10-22T19:04:03.130Z,97.77
2017-10-22T19:06:29.384Z,86.07
2017-10-22T19:08:55.639Z,85.67
2017-10-22T19:11:21.905Z,86.43
2017-10-22T19:13:48.172Z,97.30
2017-10-22T19:16:14.443Z,92.40
2017-10-22T19:18:40.766Z,87.93
2017-10-22T19:21:07.030Z,80.93
2017-10-22T19:23:33.291Z,90.17
2017-10-22T19:25:59.579Z,97.07
2017-10-22T19:28:25.872Z,103.07
2017-10-22T19:30:52.203Z,82.33
2017-10-22T19:33:18.469Z,95.97
2017-10-22T19:35:44.721Z,86.43
2017-10-22T19:38:10.979Z,82.90
2017-10-22T19:40:37.225Z,81.23
2017-10-22T19:43:03.499Z,85.77
2017-10-22T19:45:29.770Z,82.90
2017-10-22T19:47:56.030Z,83.30
2017-10-22T19:50:22.290Z,96.67
2017-10-22T19:52:48.545Z,95.77
2017-10-22T19:55:14.846Z,96.70
2017-10-22T19:57:41.112Z,87.23
2017-10-22T20:00:07.546Z,85.73
2017-10-22T20:02:33.831Z,102.70
2017-10-22T20:05:00.094Z,77.97
2017-10-22T20:07:26.383Z,99.93
2017-10-22T20:09:52.659Z,78.47
2017-10-22T20:12:18.910Z,82.03
2017-10-22T20:14:45.183Z,71.20
2017-10-22T20:17:11.472Z,77.90
2017-10-22T20:19:37.922Z,84.93
2017-10-22T20:22:04.194Z,84.00
2017-10-22T20:24:30.445Z,87.20
2017-10-22T20:26:56.695Z,73.17
2017-10-22T20:29:22.950Z,83.70
2017-10-22T20:31:49.339Z,88.90
2017-10-22T20:34:15.589Z,82.40
2017-10-22T20:36:41.847Z,89.73
2017-10-22T20:39:08.090Z,91.30
2017-10-22T20:41:34.360Z,61.23
2017-10-22T20:44:00.662Z,60.13
2017-10-22T20:46:26.928Z,65.10
2017-10-22T20:48:53.208Z,76.20
2017-10-22T20:51:19.482Z,60.80
2017-10-22T20:53:45.737Z,72.37
2017-10-22T20:56:12.082Z,79.17
2017-10-22T20:58:38.374Z,92.93
2017-10-22T21:01:04.647Z,70.03
2017-10-22T21:03:30.948Z,73.23
2017-10-22T21:05:57.219Z,84.13
2017-10-22T21:08:23.564Z,62.33
2017-10-22T21:10:49.819Z,68.30
2017-10-22T21:13:16.102Z,69.50
2017-10-22T21:15:42.374Z,72.60
2017-10-22T21:18:08.655Z,63.60
2017-10-22T21:20:34.961Z,64.80
2017-10-22T21:23:01.220Z,77.90
2017-10-22T21:25:27.498Z,69.53
2017-10-22T21:27:53.803Z,66.20
2017-10-22T21:30:20.076Z,71.70
2017-10-22T21:32:46.385Z,72.57
2017-10-22T21:35:12.657Z,73.73
2017-10-22T21:37:38.916Z,71.50
2017-10-22T21:40:05.375Z,72.93
2017-10-22T21:42:31.646Z,80.57
2017-10-22T21:44:58.153Z,96.33
2017-10-22T21:47:24.437Z,86.63
2017-10-22T21:49:50.705Z,83.40
2017-10-22T21:52:16.982Z,69.37
2017-10-22T21:54:43.245Z,74.60
2017-10-22T21:57:09.559Z,70.83
2017-10-22T21:59:35.860Z,68.73
2017-10-22T22:02:02.122Z,72.23
2017-10-22T22:04:28.393Z,71.37
2017-10-22T22:06:54.664Z,69.73
2017-10-22T22:09:20.991Z,87.73
2017-10-22T22:11:47.245Z,80.63
2017-10-22T22:14:13.504Z,73.80
2017-10-22T22:16:39.785Z,66.17
2017-10-22T22:19:06.040Z,69.40
2017-10-22T22:21:32.349Z,71.13
2017-10-22T22:23:58.607Z,86.03
2017-10-22T22:26:24.865Z,63.60
2017-10-22T22:28:51.187Z,64.53
2017-10-22T22:31:17.460Z,74.47
2017-10-22T22:33:43.762Z,66.70
2017-10-22T22:36:10.049Z,69.33
2017-10-22T22:38:36.334Z,50.57
2017-10-22T22:41:02.624Z,50.03
2017-10-22T22:43:28.940Z,52.67
2017-10-22T22:45:55.242Z,59.33
2017-10-22T22:48:21.508Z,60.13
2017-10-22T22:50:47.786Z,53.07
2017-10-22T22:53:14.070Z,57.53
2017-10-22T22:55:40.352Z,47.07
2017-10-22T22:58:06.653Z,53.53
2017-10-22T23:00:32.945Z,51.60
2017-10-22T23:02:59.222Z,41.77
2017-10-22T23:05:25.502Z,51.23
2017-10-22T23:07:51.773Z,50.33
2017-10-22T23:10:18.187Z,47.03
2017-10-22T23:12:44.467Z,51.03
2017-10-22T23:15:10.771Z,63.97
2017-10-22T23:17:37.116Z,62.03
2017-10-22T23:20:03.396Z,45.17
2017-10-22T23:22:29.663Z,47.73
2017-10-22T23:24:55.937Z,67.23
2017-10-22T23:27:22.219Z,47.77
2017-10-22T23:29:48.515Z,47.30
2017-10-22T23:32:14.795Z,52.43
2017-10-22T23:34:41.239Z,45.97
2017-10-22T23:37:07.638Z,54.13
2017-10-22T23:39:33.926Z,43.80
2017-10-22T23:42:00.247Z,45.43
2017-10-22T23:44:26.520Z,43.30
2017-10-22T23:46:52.842Z,52.63
2017-10-22T23:49:19.127Z,44.83
2017-10-22T23:51:45.405Z,41.40
2017-10-22T23:54:11.759Z,38.97
2017-10-22T23:56:38.026Z,44.47
2017-10-22T23:59:04.296Z,50.07
